createdAt,value
2018-11-14T00:00:13.684Z,24.10
2018-11-14T00:02:42.311Z,30.63
2018-11-14T00:05:11.006Z,24.17
2018-11-14T00:07:39.682Z,31.57
2018-11-14T00:10:09.091Z,26.80
2018-11-14T00:12:37.836Z,28.50
2018-11-14T00:15:08.802Z,29.67
2018-11-14T00:17:37.491Z,31.50
2018-11-14T00:20:07.478Z,25.67
2018-11-14T00:22:36.108Z,32.50
2018-11-14T00:25:05.167Z,34.80
2018-11-14T00:27:33.745Z,33.60
2018-11-14T00:30:02.467Z,30.33
2018-11-14T00:32:31.101Z,30.73
2018-11-14T00:35:00.021Z,32.77
2018-11-14T00:37:28.471Z,32.63
2018-11-14T00:39:57.115Z,35.50
2018-11-14T00:42:25.905Z,36.07
2018-11-14T00:44:54.500Z,34.60
2018-11-14T00:47:23.121Z,38.50
2018-11-14T00:49:51.722Z,36.53
2018-11-14T00:52:20.417Z,34.90
2018-11-14T00:54:49.009Z,33.60
2018-11-14T00:57:17.640Z,39.30
2018-11-14T00:59:46.312Z,31.23
2018-11-14T01:02:14.948Z,37.30
2018-11-14T01:04:43.606Z,41.00
2018-11-14T01:07:12.292Z,40.43
2018-11-14T01:09:40.968Z,41.53
2018-11-14T01:12:09.803Z,33.50
2018-11-14T01:14:38.266Z,40.53
2018-11-14T01:17:06.979Z,39.50
2018-11-14T01:19:35.746Z,37.63
2018-11-14T01:22:04.466Z,37.83
2018-11-14T01:24:33.109Z,35.07
2018-11-14T01:27:01.812Z,33.30
2018-11-14T01:29:30.466Z,34.77
2018-11-14T01:31:59.192Z,41.37
2018-11-14T01:34:27.841Z,42.10
2018-11-14T01:36:56.466Z,33.70
2018-11-14T01:39:25.160Z,33.00
2018-11-14T01:41:53.821Z,44.17
2018-11-14T01:44:22.417Z,37.37
2018-11-14T01:46:51.085Z,49.73
2018-11-14T01:49:19.703Z,41.53
2018-11-14T01:51:48.302Z,38.30
2018-11-14T01:54:16.938Z,34.07
2018-11-14T01:56:45.675Z,37.23
2018-11-14T01:59:14.333Z,42.53
2018-11-14T02:01:43.016Z,38.53
2018-11-14T02:04:11.673Z,34.03
2018-11-14T02:06:40.372Z,34.20
2018-11-14T02:09:09.920Z,48.77
2018-11-14T02:11:38.612Z,37.80
2018-11-14T02:14:07.242Z,45.87
2018-11-14T02:16:35.866Z,48.27
2018-11-14T02:19:04.539Z,47.30
2018-11-14T02:21:33.252Z,48.00
2018-11-14T02:24:01.858Z,45.53
2018-11-14T02:26:30.448Z,33.93
2018-11-14T02:28:59.117Z,39.30
2018-11-14T02:31:27.727Z,50.90
2018-11-14T02:33:56.330Z,37.40
2018-11-14T02:36:25.025Z,38.77
2018-11-14T02:38:53.637Z,46.00
2018-11-14T02:41:22.286Z,38.10
2018-11-14T02:43:50.876Z,32.20
2018-11-14T02:46:19.548Z,36.53
2018-11-14T02:48:48.172Z,39.03
2018-11-14T02:51:28.577Z,44.33
2018-11-14T02:53:57.283Z,39.20
2018-11-14T02:56:25.931Z,35.30
2018-11-14T02:58:54.570Z,37.60
2018-11-14T03:01:23.185Z,34.60
2018-11-14T03:03:51.805Z,53.27
2018-11-14T03:06:20.456Z,43.83
2018-11-14T03:08:49.069Z,34.37
2018-11-14T03:11:17.672Z,33.03
2018-11-14T03:13:46.318Z,30.73
2018-11-14T03:16:14.984Z,29.63
2018-11-14T03:18:43.669Z,35.40
2018-11-14T03:21:12.361Z,43.53
2018-11-14T03:23:40.987Z,35.87
2018-11-14T03:26:09.609Z,42.43
2018-11-14T03:28:38.374Z,39.17
2018-11-14T03:31:07.186Z,35.13
2018-11-14T03:33:35.818Z,36.40
2018-11-14T03:36:09.714Z,29.63
2018-11-14T03:38:38.358Z,35.23
2018-11-14T03:41:07.009Z,38.70
2018-11-14T03:43:35.612Z,32.10
2018-11-14T03:46:04.256Z,29.43
2018-11-14T03:48:32.968Z,48.70
2018-11-14T03:51:01.625Z,33.93
2018-11-14T03:53:30.234Z,35.90
2018-11-14T03:55:58.894Z,33.57
2018-11-14T03:58:27.641Z,34.60
2018-11-14T04:00:56.304Z,47.10
2018-11-14T04:03:24.976Z,48.80
2018-11-14T04:05:53.611Z,45.03
2018-11-14T04:08:22.345Z,37.70
2018-11-14T04:10:50.977Z,44.23
2018-11-14T04:13:19.552Z,34.70
2018-11-14T04:15:48.283Z,32.83
2018-11-14T04:18:16.921Z,41.10
2018-11-14T04:20:45.543Z,29.93
2018-11-14T04:23:14.216Z,37.33
2018-11-14T04:25:42.890Z,44.33
2018-11-14T04:28:11.535Z,35.43
2018-11-14T04:30:40.285Z,36.97
2018-11-14T04:33:08.906Z,36.83
2018-11-14T04:35:37.542Z,39.07
2018-11-14T04:38:06.270Z,44.03
2018-11-14T04:40:34.943Z,36.30
2018-11-14T04:43:03.670Z,40.90
2018-11-14T04:45:32.324Z,42.90
2018-11-14T04:48:01.055Z,37.40
2018-11-14T04:50:29.729Z,43.77
2018-11-14T04:52:58.442Z,39.63
2018-11-14T04:55:27.454Z,38.47
2018-11-14T04:57:56.081Z,47.57
2018-11-14T05:00:25.636Z,39.17
2018-11-14T05:02:54.261Z,38.60
2018-11-14T05:05:24.056Z,35.60
2018-11-14T05:07:52.658Z,36.57
2018-11-14T05:10:22.751Z,36.53
2018-11-14T05:12:51.870Z,42.47
2018-11-14T05:15:21.765Z,47.30
2018-11-14T05:17:51.072Z,45.47
2018-11-14T05:20:20.444Z,47.40
2018-11-14T05:22:49.467Z,42.40
2018-11-14T05:25:18.599Z,40.43
2018-11-14T05:27:47.259Z,45.23
2018-11-14T05:30:17.329Z,44.53
2018-11-14T05:32:47.071Z,43.37
2018-11-14T05:35:16.186Z,40.07
2018-11-14T05:37:45.010Z,40.63
2018-11-14T05:40:16.351Z,37.07
2018-11-14T05:42:45.754Z,38.73
2018-11-14T05:45:17.028Z,40.87
2018-11-14T05:47:45.735Z,45.67
2018-11-14T05:50:16.867Z,39.40
2018-11-14T05:52:45.515Z,38.80
2018-11-14T05:55:14.875Z,44.77
2018-11-14T05:57:43.625Z,41.63
2018-11-14T06:00:23.593Z,41.33
2018-11-14T06:02:52.234Z,43.07
2018-11-14T06:05:20.874Z,37.27
2018-11-14T06:07:49.552Z,41.80
2018-11-14T06:10:18.235Z,33.13
2018-11-14T06:12:46.896Z,40.63
2018-11-14T06:15:17.144Z,40.40
2018-11-14T06:17:46.523Z,37.13
2018-11-14T06:20:16.603Z,40.10
2018-11-14T06:22:46.263Z,33.53
2018-11-14T06:25:23.354Z,33.57
2018-11-14T06:27:53.100Z,31.30
2018-11-14T06:30:21.959Z,32.13
2018-11-14T06:32:51.075Z,25.37
2018-11-14T06:35:20.272Z,35.30
2018-11-14T06:37:49.972Z,33.47
2018-11-14T06:40:18.656Z,29.27
2018-11-14T06:42:47.287Z,31.80
2018-11-14T06:45:17.372Z,26.30
2018-11-14T06:47:47.136Z,29.73
2018-11-14T06:50:16.133Z,27.53
2018-11-14T06:52:45.684Z,28.60
2018-11-14T06:55:15.445Z,27.33
2018-11-14T06:57:44.077Z,26.80
2018-11-14T07:00:32.274Z,28.10
2018-11-14T07:03:01.828Z,27.17
2018-11-14T07:05:30.513Z,34.83
2018-11-14T07:07:59.248Z,32.03
2018-11-14T07:10:35.538Z,34.40
2018-11-14T07:13:07.424Z,33.87
2018-11-14T07:15:36.637Z,37.87
2018-11-14T07:18:05.671Z,42.60
2018-11-14T07:20:35.728Z,34.27
2018-11-14T07:23:04.481Z,38.63
2018-11-14T07:25:33.114Z,32.70
2018-11-14T07:28:01.821Z,37.17
2018-11-14T07:30:31.189Z,38.07
2018-11-14T07:33:03.146Z,42.07
2018-11-14T07:35:31.858Z,42.83
2018-11-14T07:38:35.416Z,44.80
2018-11-14T07:41:05.270Z,64.67
2018-11-14T07:43:35.013Z,49.50
2018-11-14T07:46:03.918Z,52.13
2018-11-14T07:48:32.902Z,47.23
2018-11-14T07:51:01.711Z,42.40
2018-11-14T07:53:30.327Z,42.83
2018-11-14T07:55:58.997Z,46.70
2018-11-14T07:58:27.613Z,47.30
2018-11-14T08:00:56.770Z,58.13
2018-11-14T08:03:25.650Z,54.73
2018-11-14T08:05:55.029Z,47.67
2018-11-14T08:08:23.722Z,46.10
2018-11-14T08:10:52.384Z,50.63
2018-11-14T08:13:22.345Z,51.70
2018-11-14T08:15:52.477Z,51.47
2018-11-14T08:18:21.137Z,50.07
2018-11-14T08:20:49.847Z,48.87
2018-11-14T08:23:18.565Z,62.30
2018-11-14T08:25:47.385Z,57.53
2018-11-14T08:28:16.125Z,56.07
2018-11-14T08:30:45.501Z,43.93
2018-11-14T08:33:14.213Z,42.03
2018-11-14T08:35:42.816Z,41.93
2018-11-14T08:38:11.567Z,42.17
2018-11-14T08:40:40.258Z,40.03
2018-11-14T08:43:09.239Z,40.37
2018-11-14T08:45:37.877Z,43.00
2018-11-14T08:48:07.178Z,35.23
2018-11-14T08:50:35.814Z,30.20
2018-11-14T08:53:04.844Z,39.30
2018-11-14T08:55:33.510Z,36.40
2018-11-14T08:58:02.230Z,34.83
2018-11-14T09:00:31.188Z,30.40
2018-11-14T09:02:59.857Z,32.83
2018-11-14T09:05:28.472Z,22.87
2018-11-14T09:07:57.115Z,23.87
2018-11-14T09:10:26.952Z,31.30
2018-11-14T09:12:55.645Z,21.97
2018-11-14T09:15:25.214Z,27.07
2018-11-14T09:17:53.849Z,29.07
2018-11-14T09:20:23.672Z,24.17
2018-11-14T09:22:52.330Z,21.47
2018-11-14T09:25:22.689Z,25.70
2018-11-14T09:27:51.379Z,25.37
2018-11-14T09:30:21.330Z,19.43
2018-11-14T09:32:50.005Z,22.93
2018-11-14T09:35:19.870Z,18.10
2018-11-14T09:37:48.592Z,18.03
2018-11-14T09:40:19.788Z,18.77
2018-11-14T09:42:48.457Z,18.90
2018-11-14T09:45:18.472Z,21.50
2018-11-14T09:47:47.091Z,17.83
2018-11-14T09:50:18.132Z,21.33
2018-11-14T09:52:48.207Z,18.27
2018-11-14T09:55:16.949Z,32.23
2018-11-14T09:57:45.905Z,21.87
2018-11-14T10:00:20.915Z,16.07
2018-11-14T10:02:51.127Z,20.93
2018-11-14T10:05:21.245Z,19.50
2018-11-14T10:07:49.949Z,18.63
2018-11-14T10:10:20.183Z,17.83
2018-11-14T10:12:48.834Z,16.13
2018-11-14T10:15:18.653Z,15.80
2018-11-14T10:17:47.732Z,16.47
2018-11-14T10:20:17.674Z,15.47
2018-11-14T10:22:46.647Z,15.10
2018-11-14T10:25:15.914Z,17.70
2018-11-14T10:27:45.227Z,13.67
2018-11-14T10:30:18.339Z,15.63
2018-11-14T10:32:47.744Z,20.47
2018-11-14T10:35:16.438Z,18.40
2018-11-14T10:37:45.209Z,19.00
2018-11-14T10:40:16.683Z,19.03
2018-11-14T10:42:45.504Z,14.13
2018-11-14T10:45:16.400Z,17.83
2018-11-14T10:47:45.132Z,19.33
2018-11-14T10:50:19.005Z,21.43
2018-11-14T10:52:47.669Z,17.10
2018-11-14T10:55:16.829Z,15.90
2018-11-14T10:57:45.534Z,15.50
2018-11-14T11:00:20.685Z,14.50
2018-11-14T11:02:54.649Z,20.90
2018-11-14T11:06:31.158Z,18.00
2018-11-14T11:09:05.189Z,10.87
2018-11-14T11:11:39.160Z,11.53
2018-11-14T11:14:13.233Z,14.83
2018-11-14T11:16:48.067Z,16.50
2018-11-14T11:19:18.078Z,11.60
2018-11-14T11:21:47.033Z,19.23
2018-11-14T11:24:17.043Z,19.30
2018-11-14T11:26:45.675Z,13.27
2018-11-14T11:29:14.365Z,18.20
2018-11-14T11:31:43.136Z,15.60
2018-11-14T11:34:12.200Z,20.93
2018-11-14T11:36:41.351Z,15.00
2018-11-14T11:39:14.056Z,21.00
2018-11-14T11:41:43.298Z,18.33
2018-11-14T11:44:12.016Z,14.23
2018-11-14T11:46:41.818Z,15.57
2018-11-14T11:49:11.005Z,15.23
2018-11-14T11:51:39.629Z,14.53
2018-11-14T11:54:08.537Z,13.10
2018-11-14T11:56:37.546Z,23.90
2018-11-14T11:59:06.969Z,14.97
2018-11-14T12:01:35.748Z,17.00
2018-11-14T12:04:04.584Z,21.77
2018-11-14T12:06:33.307Z,16.80
2018-11-14T12:09:01.982Z,13.43
2018-11-14T12:11:30.851Z,16.00
2018-11-14T12:13:59.511Z,15.33
2018-11-14T12:16:28.164Z,18.47
2018-11-14T12:18:56.875Z,17.40
2018-11-14T12:21:25.501Z,16.43
2018-11-14T12:23:54.158Z,13.27
2018-11-14T12:26:22.837Z,20.70
2018-11-14T12:28:51.550Z,15.93
2018-11-14T12:31:20.282Z,17.73
2018-11-14T12:33:49.045Z,18.07
2018-11-14T12:36:17.803Z,15.57
2018-11-14T12:38:46.567Z,14.83
2018-11-14T12:41:15.721Z,17.33
2018-11-14T12:43:44.382Z,16.67
2018-11-14T12:46:13.016Z,15.17
2018-11-14T12:48:41.701Z,13.73
2018-11-14T12:51:10.431Z,18.77
2018-11-14T12:53:39.059Z,19.10
2018-11-14T12:56:07.717Z,17.37
2018-11-14T12:58:36.415Z,12.00
2018-11-14T13:01:05.748Z,18.93
2018-11-14T13:03:34.435Z,16.87
2018-11-14T13:06:03.207Z,15.73
2018-11-14T13:08:31.869Z,16.60
2018-11-14T13:11:00.493Z,22.80
2018-11-14T13:13:34.629Z,18.17
2018-11-14T13:16:03.399Z,14.27
2018-11-14T13:18:32.127Z,14.73
2018-11-14T13:21:00.870Z,11.03
2018-11-14T13:23:29.498Z,16.13
2018-11-14T13:25:58.222Z,19.33
2018-11-14T13:28:26.860Z,13.63
2018-11-14T13:30:55.535Z,14.77
2018-11-14T13:33:24.160Z,15.07
2018-11-14T13:35:52.790Z,13.00
2018-11-14T13:38:21.440Z,17.70
2018-11-14T13:40:50.141Z,14.93
2018-11-14T13:43:18.944Z,15.13
2018-11-14T13:45:47.504Z,14.30
2018-11-14T13:48:16.249Z,23.47
2018-11-14T13:50:45.266Z,11.60
2018-11-14T13:53:13.637Z,11.40
2018-11-14T13:55:42.339Z,13.20
2018-11-14T13:58:10.970Z,14.50
2018-11-14T14:00:39.582Z,12.00
2018-11-14T14:03:08.562Z,13.17
2018-11-14T14:05:37.271Z,18.87
2018-11-14T14:08:06.098Z,17.33
2018-11-14T14:10:34.725Z,11.93
2018-11-14T14:13:03.358Z,11.67
2018-11-14T14:15:32.167Z,12.90
2018-11-14T14:18:00.815Z,14.70
2018-11-14T14:20:29.504Z,17.60
2018-11-14T14:22:58.156Z,14.10
2018-11-14T14:25:26.829Z,12.47
2018-11-14T14:27:55.637Z,10.90
2018-11-14T14:30:24.369Z,17.60
2018-11-14T14:32:53.030Z,11.60
2018-11-14T14:35:22.674Z,18.17
2018-11-14T14:37:51.382Z,9.60
2018-11-14T14:40:21.150Z,13.90
2018-11-14T14:42:49.942Z,7.97
2018-11-14T14:45:22.018Z,11.80
2018-11-14T14:47:50.637Z,12.03
2018-11-14T14:50:20.025Z,19.37
2018-11-14T14:52:48.700Z,10.90
2018-11-14T14:55:20.041Z,13.27
2018-11-14T14:57:49.121Z,10.77
2018-11-14T15:00:29.444Z,15.50
2018-11-14T15:02:58.077Z,13.43
2018-11-14T15:05:26.867Z,12.83
2018-11-14T15:07:55.625Z,13.90
2018-11-14T15:10:24.873Z,12.63
2018-11-14T15:12:53.585Z,12.17
2018-11-14T15:15:22.271Z,20.40
2018-11-14T15:17:51.024Z,15.47
2018-11-14T15:20:21.972Z,12.60
2018-11-14T15:22:50.712Z,16.73
2018-11-14T15:25:20.725Z,13.30
2018-11-14T15:27:49.968Z,12.70
2018-11-14T15:30:22.869Z,11.10
2018-11-14T15:32:51.510Z,11.73
2018-11-14T15:35:20.189Z,14.10
2018-11-14T15:37:49.006Z,10.60
2018-11-14T15:40:18.826Z,13.40
2018-11-14T15:42:47.580Z,14.60
2018-11-14T15:45:18.895Z,16.00
2018-11-14T15:47:47.547Z,13.63
2018-11-14T15:50:24.016Z,13.27
2018-11-14T15:52:53.893Z,14.37
2018-11-14T15:55:22.703Z,27.67
2018-11-14T15:57:51.547Z,24.23
2018-11-14T16:00:23.615Z,18.93
2018-11-14T16:02:52.281Z,17.53
2018-11-14T16:05:22.213Z,17.73
2018-11-14T16:07:52.154Z,14.20
2018-11-14T16:10:21.857Z,18.27
2018-11-14T16:12:50.494Z,16.80
2018-11-14T16:15:20.539Z,13.83
2018-11-14T16:17:49.208Z,18.60
2018-11-14T16:20:19.254Z,17.27
2018-11-14T16:22:47.944Z,16.27
2018-11-14T16:25:17.949Z,16.57
2018-11-14T16:27:47.581Z,21.00
2018-11-14T16:30:33.603Z,19.40
2018-11-14T16:33:03.788Z,18.53
2018-11-14T16:35:32.486Z,18.73
2018-11-14T16:38:01.226Z,17.70
2018-11-14T16:40:31.095Z,17.50
2018-11-14T16:43:00.793Z,25.67
2018-11-14T16:45:29.449Z,17.93
2018-11-14T16:47:58.127Z,17.00
2018-11-14T16:50:26.752Z,22.13
2018-11-14T16:52:55.373Z,20.47
2018-11-14T16:55:24.337Z,23.60
2018-11-14T16:57:54.124Z,20.03
2018-11-14T17:00:27.009Z,20.90
2018-11-14T17:02:55.699Z,28.17
2018-11-14T17:05:25.493Z,24.83
2018-11-14T17:07:54.331Z,21.33
2018-11-14T17:10:23.338Z,22.30
2018-11-14T17:12:53.464Z,25.87
2018-11-14T17:15:23.373Z,22.33
2018-11-14T17:17:52.100Z,21.70
2018-11-14T17:20:21.729Z,25.30
2018-11-14T17:22:51.714Z,20.40
2018-11-14T17:25:22.432Z,22.57
2018-11-14T17:27:51.205Z,22.27
2018-11-14T17:30:23.037Z,19.33
2018-11-14T17:32:52.117Z,24.33
2018-11-14T17:35:20.923Z,21.20
2018-11-14T17:37:49.550Z,19.97
2018-11-14T17:40:23.558Z,19.80
2018-11-14T17:42:52.935Z,27.10
2018-11-14T17:45:23.829Z,28.10
2018-11-14T17:47:52.845Z,31.27
2018-11-14T17:50:24.911Z,30.03
2018-11-14T17:52:54.388Z,26.90
2018-11-14T17:55:23.715Z,22.30
2018-11-14T17:57:52.325Z,23.50
2018-11-14T18:00:24.192Z,18.27
2018-11-14T18:02:52.796Z,19.80
2018-11-14T18:05:22.780Z,30.90
2018-11-14T18:07:52.070Z,24.80
2018-11-14T18:10:22.630Z,20.93
2018-11-14T18:12:52.248Z,22.47
2018-11-14T18:15:20.985Z,28.80
2018-11-14T18:17:50.654Z,24.03
2018-11-14T18:20:21.369Z,21.43
2018-11-14T18:22:50.565Z,20.83
2018-11-14T18:25:19.177Z,21.27
2018-11-14T18:27:47.821Z,29.80
2018-11-14T18:30:21.924Z,26.70
2018-11-14T18:32:56.336Z,25.90
2018-11-14T18:35:26.013Z,26.77
2018-11-14T18:37:55.508Z,35.80
2018-11-14T18:40:25.511Z,29.67
2018-11-14T18:42:54.174Z,39.80
2018-11-14T18:45:26.055Z,32.17
2018-11-14T18:47:55.477Z,34.33
2018-11-14T18:50:24.965Z,30.57
2018-11-14T18:52:53.769Z,30.23
2018-11-14T18:55:23.885Z,30.23
2018-11-14T18:57:52.861Z,29.60
2018-11-14T19:00:25.835Z,27.20
2018-11-14T19:02:54.480Z,31.80
2018-11-14T19:05:23.044Z,29.30
2018-11-14T19:07:51.882Z,24.00
2018-11-14T19:10:22.097Z,29.20
2018-11-14T19:12:52.074Z,36.23
2018-11-14T19:15:36.892Z,31.37
2018-11-14T19:18:06.319Z,27.97
2018-11-14T19:20:35.937Z,30.27
2018-11-14T19:23:05.556Z,27.03
2018-11-14T19:25:35.577Z,26.23
2018-11-14T19:28:04.446Z,24.03
2018-11-14T19:30:34.682Z,29.23
2018-11-14T19:33:03.443Z,31.87
2018-11-14T19:35:32.173Z,26.17
2018-11-14T19:38:01.116Z,30.80
2018-11-14T19:40:33.042Z,28.03
2018-11-14T19:43:02.893Z,31.23
2018-11-14T19:45:33.054Z,28.30
2018-11-14T19:48:01.813Z,30.10
2018-11-14T19:50:30.473Z,29.53
2018-11-14T19:52:59.079Z,27.03
2018-11-14T19:55:28.612Z,30.20
2018-11-14T19:57:58.840Z,28.70
2018-11-14T20:00:28.991Z,39.87
2018-11-14T20:02:57.652Z,43.47
2018-11-14T20:05:26.337Z,43.00
2018-11-14T20:07:55.138Z,39.10
2018-11-14T20:10:25.560Z,36.50
2018-11-14T20:12:54.638Z,29.47
2018-11-14T20:15:24.708Z,28.77
2018-11-14T20:17:53.430Z,28.23
2018-11-14T20:20:29.951Z,29.90
2018-11-14T20:22:58.605Z,29.33
2018-11-14T20:25:27.323Z,27.87
2018-11-14T20:27:56.000Z,30.83
2018-11-14T20:30:27.192Z,25.87
2018-11-14T20:32:57.014Z,27.17
2018-11-14T20:35:26.391Z,30.67
2018-11-14T20:37:55.180Z,22.10
2018-11-14T20:40:24.167Z,23.30
2018-11-14T20:42:53.668Z,24.30
2018-11-14T20:45:23.698Z,21.73
2018-11-14T20:47:52.325Z,28.30
2018-11-14T20:50:22.209Z,22.40
2018-11-14T20:52:53.271Z,21.40
2018-11-14T20:55:21.999Z,24.70
2018-11-14T20:57:50.636Z,26.93
2018-11-14T21:00:25.683Z,21.27
2018-11-14T21:02:54.420Z,26.27
2018-11-14T21:05:23.537Z,23.50
2018-11-14T21:07:52.272Z,24.37
2018-11-14T21:10:27.497Z,22.23
2018-11-14T21:12:56.433Z,18.97
2018-11-14T21:15:30.505Z,16.70
2018-11-14T21:18:00.079Z,20.27
2018-11-14T21:20:28.688Z,19.37
2018-11-14T21:22:57.431Z,24.20
2018-11-14T21:25:26.497Z,19.50
2018-11-14T21:27:55.822Z,17.67
2018-11-14T21:30:25.550Z,24.33
2018-11-14T21:32:54.250Z,20.20
2018-11-14T21:35:26.585Z,17.97
2018-11-14T21:37:56.614Z,21.90
2018-11-14T21:40:25.287Z,21.10
2018-11-14T21:42:55.020Z,19.83
2018-11-14T21:45:24.899Z,21.90
2018-11-14T21:47:58.841Z,23.00
2018-11-14T21:50:28.341Z,21.00
2018-11-14T21:52:57.003Z,23.13
2018-11-14T21:55:25.615Z,21.13
2018-11-14T21:57:54.252Z,20.17
2018-11-14T22:00:40.989Z,24.23
2018-11-14T22:03:10.386Z,19.67
2018-11-14T22:05:39.487Z,22.07
2018-11-14T22:08:08.156Z,18.87
2018-11-14T22:10:36.846Z,20.27
2018-11-14T22:13:05.562Z,27.50
2018-11-14T22:15:34.238Z,23.53
2018-11-14T22:18:02.857Z,25.47
2018-11-14T22:20:31.593Z,22.87
2018-11-14T22:23:00.211Z,30.00
2018-11-14T22:25:29.700Z,34.50
2018-11-14T22:27:58.531Z,29.43
2018-11-14T22:30:31.136Z,25.07
2018-11-14T22:32:59.844Z,26.87
2018-11-14T22:35:29.745Z,27.50
2018-11-14T22:37:58.323Z,26.47
2018-11-14T22:40:28.172Z,24.50
2018-11-14T22:42:56.789Z,19.63
2018-11-14T22:45:26.745Z,25.03
2018-11-14T22:47:55.429Z,23.73
2018-11-14T22:50:24.753Z,21.50
2018-11-14T22:52:53.724Z,20.17
2018-11-14T22:55:23.575Z,21.53
2018-11-14T22:57:52.738Z,20.53
2018-11-14T23:00:29.339Z,21.60
2018-11-14T23:02:59.122Z,19.33
2018-11-14T23:05:27.920Z,21.20
2018-11-14T23:07:57.345Z,23.13
2018-11-14T23:10:26.437Z,21.50
2018-11-14T23:12:55.277Z,18.07
2018-11-14T23:15:24.331Z,25.40
2018-11-14T23:17:53.025Z,18.00
2018-11-14T23:20:21.899Z,21.40
2018-11-14T23:22:51.173Z,19.03
2018-11-14T23:25:20.227Z,23.17
2018-11-14T23:27:50.091Z,16.43
2018-11-14T23:30:19.776Z,24.77
2018-11-14T23:32:49.581Z,20.10
2018-11-14T23:35:19.603Z,18.90
2018-11-14T23:37:49.554Z,17.00
2018-11-14T23:40:18.344Z,21.17
2018-11-14T23:42:47.215Z,19.87
2018-11-14T23:45:16.607Z,18.97
2018-11-14T23:47:46.177Z,20.03
2018-11-14T23:50:16.973Z,21.27
2018-11-14T23:52:46.705Z,22.67
2018-11-14T23:55:16.017Z,20.60
2018-11-14T23:57:44.749Z,22.80
